sensor_id;sensor_type;location;lat;lon;timestamp;pressure;altitude;pressure_sealevel;temperature;humidity
79625;BME280;69101;45.534;10.218;2023-07-09T00:01:10;100384.09;;;27.38;45.67
79625;BME280;69101;45.534;10.218;2023-07-09T00:03:38;100387.59;;;27.39;45.87
79625;BME280;69101;45.534;10.218;2023-07-09T00:06:03;100380.84;;;27.36;46.07
79625;BME280;69101;45.534;10.218;2023-07-09T00:08:30;100380.28;;;27.34;45.84
79625;BME280;69101;45.534;10.218;2023-07-09T00:10:57;100379.47;;;27.33;45.88
79625;BME280;69101;45.534;10.218;2023-07-09T00:13:24;100373.53;;;27.31;46.02
79625;BME280;69101;45.534;10.218;2023-07-09T00:15:51;100380.72;;;27.31;45.96
79625;BME280;69101;45.534;10.218;2023-07-09T00:18:17;100379.69;;;27.32;45.99
79625;BME280;69101;45.534;10.218;2023-07-09T00:20:43;100370.28;;;27.29;45.84
79625;BME280;69101;45.534;10.218;2023-07-09T00:23:11;100364.69;;;27.31;45.99
79625;BME280;69101;45.534;10.218;2023-07-09T00:25:40;100364.69;;;27.31;46.06
79625;BME280;69101;45.534;10.218;2023-07-09T00:28:16;100365.97;;;27.28;46.14
79625;BME280;69101;45.534;10.218;2023-07-09T00:30:46;100365.97;;;27.28;46.20
79625;BME280;69101;45.534;10.218;2023-07-09T00:33:13;100360.38;;;27.30;45.97
79625;BME280;69101;45.534;10.218;2023-07-09T00:35:44;100363.66;;;27.32;46.15
79625;BME280;69101;45.534;10.218;2023-07-09T00:38:17;100359.59;;;27.29;46.17
79625;BME280;69101;45.534;10.218;2023-07-09T00:41:06;100359.81;;;27.28;45.95
79625;BME280;69101;45.534;10.218;2023-07-09T00:43:36;100367.63;;;27.29;45.84
79625;BME280;69101;45.534;10.218;2023-07-09T00:48:56;100362.94;;;27.25;46.09
79625;BME280;69101;45.534;10.218;2023-07-09T00:51:25;100366.66;;;27.24;46.27
79625;BME280;69101;45.534;10.218;2023-07-09T00:53:58;100368.06;;;27.26;46.11
79625;BME280;69101;45.534;10.218;2023-07-09T00:58:52;100371.75;;;27.25;45.97
79625;BME280;69101;45.534;10.218;2023-07-09T01:01:19;100369.34;;;27.24;46.31
79625;BME280;69101;45.534;10.218;2023-07-09T01:03:48;100370.75;;;27.26;45.88
79625;BME280;69101;45.534;10.218;2023-07-09T01:06:20;100371.19;;;27.23;46.13
79625;BME280;69101;45.534;10.218;2023-07-09T01:08:49;100365.84;;;27.23;46.10
79625;BME280;69101;45.534;10.218;2023-07-09T01:11:20;100380.00;;;27.24;46.07
79625;BME280;69101;45.534;10.218;2023-07-09T01:13:52;100376.53;;;27.23;46.30
79625;BME280;69101;45.534;10.218;2023-07-09T01:16:18;100369.06;;;27.14;46.35
79625;BME280;69101;45.534;10.218;2023-07-09T01:18:46;100362.47;;;27.16;46.23
79625;BME280;69101;45.534;10.218;2023-07-09T01:21:11;100372.09;;;27.17;46.30
79625;BME280;69101;45.534;10.218;2023-07-09T01:23:41;100370.69;;;27.15;46.36
79625;BME280;69101;45.534;10.218;2023-07-09T01:26:12;100368.25;;;27.13;46.43
79625;BME280;69101;45.534;10.218;2023-07-09T01:28:38;100363.72;;;27.14;46.23
79625;BME280;69101;45.534;10.218;2023-07-09T01:31:07;100361.84;;;27.14;46.53
79625;BME280;69101;45.534;10.218;2023-07-09T01:33:33;100359.03;;;27.09;46.41
79625;BME280;69101;45.534;10.218;2023-07-09T01:35:58;100362.09;;;27.13;46.31
79625;BME280;69101;45.534;10.218;2023-07-09T01:38:29;100365.00;;;27.11;46.46
79625;BME280;69101;45.534;10.218;2023-07-09T01:40:57;100365.22;;;27.10;46.42
79625;BME280;69101;45.534;10.218;2023-07-09T01:43:24;100368.47;;;27.12;46.73
79625;BME280;69101;45.534;10.218;2023-07-09T01:45:52;100368.47;;;27.12;46.64
79625;BME280;69101;45.534;10.218;2023-07-09T01:48:19;100373.81;;;27.12;46.42
79625;BME280;69101;45.534;10.218;2023-07-09T01:50:46;100369.28;;;27.12;46.42
79625;BME280;69101;45.534;10.218;2023-07-09T01:53:13;100373.22;;;27.10;46.58
79625;BME280;69101;45.534;10.218;2023-07-09T01:55:40;100368.13;;;27.08;46.65
79625;BME280;69101;45.534;10.218;2023-07-09T01:58:05;100375.69;;;27.11;46.26
79625;BME280;69101;45.534;10.218;2023-07-09T02:00:33;100374.63;;;27.12;46.56
79625;BME280;69101;45.534;10.218;2023-07-09T02:03:00;100373.47;;;27.08;46.48
79625;BME280;69101;45.534;10.218;2023-07-09T02:05:27;100365.66;;;27.07;46.71
79625;BME280;69101;45.534;10.218;2023-07-09T02:07:52;100367.28;;;27.08;46.63
79625;BME280;69101;45.534;10.218;2023-07-09T02:10:18;100372.63;;;27.08;46.59
79625;BME280;69101;45.534;10.218;2023-07-09T02:12:44;100369.16;;;27.07;46.39
79625;BME280;69101;45.534;10.218;2023-07-09T02:15:10;100375.53;;;27.06;46.78
79625;BME280;69101;45.534;10.218;2023-07-09T02:17:36;100378.66;;;27.03;46.80
79625;BME280;69101;45.534;10.218;2023-07-09T02:20:02;100383.75;;;27.05;46.87
79625;BME280;69101;45.534;10.218;2023-07-09T02:22:30;100380.75;;;27.01;46.88
79625;BME280;69101;45.534;10.218;2023-07-09T02:24:55;100388.75;;;27.01;46.69
79625;BME280;69101;45.534;10.218;2023-07-09T02:27:21;100392.00;;;27.03;46.69
79625;BME280;69101;45.534;10.218;2023-07-09T02:29:47;100392.22;;;27.02;46.96
79625;BME280;69101;45.534;10.218;2023-07-09T02:32:19;100385.03;;;27.02;46.88
79625;BME280;69101;45.534;10.218;2023-07-09T02:34:45;100388.75;;;27.01;46.87
79625;BME280;69101;45.534;10.218;2023-07-09T02:37:16;100387.34;;;26.99;46.99
79625;BME280;69101;45.534;10.218;2023-07-09T02:39:43;100395.38;;;26.99;46.90
79625;BME280;69101;45.534;10.218;2023-07-09T02:42:10;100392.09;;;26.97;46.91
79625;BME280;69101;45.534;10.218;2023-07-09T02:44:36;100397.22;;;26.98;47.06
79625;BME280;69101;45.534;10.218;2023-07-09T02:47:02;100395.81;;;26.96;46.95
79625;BME280;69101;45.534;10.218;2023-07-09T02:49:27;100402.75;;;26.97;46.96
79625;BME280;69101;45.534;10.218;2023-07-09T02:51:52;100400.34;;;26.95;47.09
79625;BME280;69101;45.534;10.218;2023-07-09T02:54:18;100403.38;;;26.99;46.97
79625;BME280;69101;45.534;10.218;2023-07-09T02:56:43;100402.19;;;26.95;47.09
79625;BME280;69101;45.534;10.218;2023-07-09T02:59:09;100409.75;;;26.98;47.16
79625;BME280;69101;45.534;10.218;2023-07-09T03:01:34;100414.50;;;26.96;47.13
79625;BME280;69101;45.534;10.218;2023-07-09T03:04:01;100414.06;;;26.99;47.12
79625;BME280;69101;45.534;10.218;2023-07-09T03:06:29;100410.19;;;26.95;47.31
79625;BME280;69101;45.534;10.218;2023-07-09T03:08:54;100411.00;;;26.95;47.11
79625;BME280;69101;45.534;10.218;2023-07-09T03:11:21;100415.09;;;26.98;46.92
79625;BME280;69101;45.534;10.218;2023-07-09T03:13:47;100402.75;;;26.97;47.24
79625;BME280;69101;45.534;10.218;2023-07-09T03:16:12;100407.53;;;26.95;47.00
79625;BME280;69101;45.534;10.218;2023-07-09T03:18:39;100409.16;;;26.96;46.92
79625;BME280;69101;45.534;10.218;2023-07-09T03:21:04;100397.72;;;26.89;47.11
79625;BME280;69101;45.534;10.218;2023-07-09T03:23:30;100405.91;;;26.94;47.06
79625;BME280;69101;45.534;10.218;2023-07-09T03:25:55;100405.28;;;26.92;47.17
79625;BME280;69101;45.534;10.218;2023-07-09T03:28:21;100404.50;;;26.91;47.43
79625;BME280;69101;45.534;10.218;2023-07-09T03:30:48;100398.09;;;26.92;47.16
79625;BME280;69101;45.534;10.218;2023-07-09T03:33:15;100410.03;;;26.90;47.42
79625;BME280;69101;45.534;10.218;2023-07-09T03:35:41;100404.13;;;26.88;47.37
79625;BME280;69101;45.534;10.218;2023-07-09T03:38:08;100405.16;;;26.87;47.39
79625;BME280;69101;45.534;10.218;2023-07-09T03:40:34;100412.13;;;26.88;47.20
79625;BME280;69101;45.534;10.218;2023-07-09T03:43:00;100408.50;;;26.82;47.37
79625;BME280;69101;45.534;10.218;2023-07-09T03:45:25;100414.22;;;26.86;47.34
79625;BME280;69101;45.534;10.218;2023-07-09T03:47:51;100410.34;;;26.82;47.39
79625;BME280;69101;45.534;10.218;2023-07-09T03:50:17;100408.50;;;26.82;47.41
79625;BME280;69101;45.534;10.218;2023-07-09T03:52:42;100407.91;;;26.80;47.33
79625;BME280;69101;45.534;10.218;2023-07-09T03:55:08;100408.50;;;26.82;47.29
79625;BME280;69101;45.534;10.218;2023-07-09T03:57:34;100413.25;;;26.80;47.58
79625;BME280;69101;45.534;10.218;2023-07-09T03:59:59;100418.78;;;26.79;47.51
79625;BME280;69101;45.534;10.218;2023-07-09T04:02:25;100412.44;;;26.80;47.71
79625;BME280;69101;45.534;10.218;2023-07-09T04:04:50;100411.41;;;26.81;47.33
79625;BME280;69101;45.534;10.218;2023-07-09T04:07:16;100405.25;;;26.80;47.44
79625;BME280;69101;45.534;10.218;2023-07-09T04:09:42;100410.00;;;26.78;47.60
79625;BME280;69101;45.534;10.218;2023-07-09T04:12:08;100409.75;;;26.80;47.62
79625;BME280;69101;45.534;10.218;2023-07-09T04:14:34;100409.75;;;26.80;47.55
79625;BME280;69101;45.534;10.218;2023-07-09T04:16:59;100405.44;;;26.79;47.74
79625;BME280;69101;45.534;10.218;2023-07-09T04:19:25;100411.84;;;26.78;47.84
79625;BME280;69101;45.534;10.218;2023-07-09T04:21:51;100414.28;;;26.79;47.94
79625;BME280;69101;45.534;10.218;2023-07-09T04:24:17;100409.19;;;26.78;47.60
79625;BME280;69101;45.534;10.218;2023-07-09T04:26:42;100416.13;;;26.79;47.56
79625;BME280;69101;45.534;10.218;2023-07-09T04:29:08;100409.75;;;26.80;47.62
79625;BME280;69101;45.534;10.218;2023-07-09T04:31:33;100417.78;;;26.80;47.64
79625;BME280;69101;45.534;10.218;2023-07-09T04:33:59;100416.13;;;26.79;47.83
79625;BME280;69101;45.534;10.218;2023-07-09T04:36:24;100420.69;;;26.78;47.65
79625;BME280;69101;45.534;10.218;2023-07-09T04:38:51;100426.00;;;26.78;47.81
79625;BME280;69101;45.534;10.218;2023-07-09T04:41:16;100425.19;;;26.78;47.57
79625;BME280;69101;45.534;10.218;2023-07-09T04:43:42;100418.78;;;26.79;47.94
79625;BME280;69101;45.534;10.218;2023-07-09T04:46:07;100423.56;;;26.77;47.66
79625;BME280;69101;45.534;10.218;2023-07-09T04:48:32;100419.25;;;26.76;47.60
79625;BME280;69101;45.534;10.218;2023-07-09T04:50:58;100420.44;;;26.80;47.87
79625;BME280;69101;45.534;10.218;2023-07-09T04:53:24;100427.09;;;26.89;47.37
79625;BME280;69101;45.534;10.218;2023-07-09T04:55:50;100417.16;;;26.96;47.41
79625;BME280;69101;45.534;10.218;2023-07-09T04:58:16;100422.22;;;27.04;47.25
79625;BME280;69101;45.534;10.218;2023-07-09T05:00:42;100419.00;;;27.13;47.07
79625;BME280;69101;45.534;10.218;2023-07-09T05:03:08;100420.41;;;27.16;46.93
79625;BME280;69101;45.534;10.218;2023-07-09T05:05:33;100423.44;;;27.19;46.72
79625;BME280;69101;45.534;10.218;2023-07-09T05:07:59;100425.44;;;27.24;46.63
79625;BME280;69101;45.534;10.218;2023-07-09T05:10:24;100421.25;;;27.28;46.66
79625;BME280;69101;45.534;10.218;2023-07-09T05:12:51;100424.06;;;27.33;46.61
79625;BME280;69101;45.534;10.218;2023-07-09T05:15:18;100426.03;;;27.38;46.16
79625;BME280;69101;45.534;10.218;2023-07-09T05:17:44;100424.00;;;27.40;46.42
79625;BME280;69101;45.534;10.218;2023-07-09T05:20:10;100420.06;;;27.42;46.33
79625;BME280;69101;45.534;10.218;2023-07-09T05:22:35;100421.47;;;27.45;46.13
79625;BME280;69101;45.534;10.218;2023-07-09T05:25:01;100422.41;;;27.50;46.25
79625;BME280;69101;45.534;10.218;2023-07-09T05:27:26;100427.28;;;27.53;46.15
79625;BME280;69101;45.534;10.218;2023-07-09T05:29:52;100425.22;;;27.55;46.46
79625;BME280;69101;45.534;10.218;2023-07-09T05:32:17;100422.31;;;27.57;46.24
79625;BME280;69101;45.534;10.218;2023-07-09T05:34:43;100427.19;;;27.60;46.05
79625;BME280;69101;45.534;10.218;2023-07-09T05:37:08;100432.28;;;27.61;45.98
79625;BME280;69101;45.534;10.218;2023-07-09T05:39:34;100432.09;;;27.63;45.83
79625;BME280;69101;45.534;10.218;2023-07-09T05:41:59;100427.31;;;27.65;45.69
79625;BME280;69101;45.534;10.218;2023-07-09T05:44:24;100425.69;;;27.64;46.26
79625;BME280;69101;45.534;10.218;2023-07-09T05:46:50;100428.72;;;27.67;46.07
79625;BME280;69101;45.534;10.218;2023-07-09T05:49:15;100427.09;;;27.66;45.91
79625;BME280;69101;45.534;10.218;2023-07-09T05:51:41;100423.13;;;27.69;45.55
79625;BME280;69101;45.534;10.218;2023-07-09T05:54:06;100423.13;;;27.69;45.62
79625;BME280;69101;45.534;10.218;2023-07-09T05:56:32;100427.44;;;27.70;45.64
79625;BME280;69101;45.534;10.218;2023-07-09T05:58:57;100429.06;;;27.71;45.85
79625;BME280;69101;45.534;10.218;2023-07-09T06:01:23;100429.06;;;27.71;45.86
79625;BME280;69101;45.534;10.218;2023-07-09T06:03:48;100433.63;;;27.70;45.56
79625;BME280;69101;45.534;10.218;2023-07-09T06:06:14;100427.44;;;27.70;45.69
79625;BME280;69101;45.534;10.218;2023-07-09T06:08:40;100431.97;;;27.69;45.61
79625;BME280;69101;45.534;10.218;2023-07-09T06:11:05;100434.88;;;27.68;45.82
79625;BME280;69101;45.534;10.218;2023-07-09T06:13:31;100431.41;;;27.67;45.77
79625;BME280;69101;45.534;10.218;2023-07-09T06:15:57;100433.00;;;27.68;45.90
79625;BME280;69101;45.534;10.218;2023-07-09T06:18:24;100436.75;;;27.67;45.95
79625;BME280;69101;45.534;10.218;2023-07-09T06:20:56;100434.88;;;27.68;45.77
79625;BME280;69101;45.534;10.218;2023-07-09T06:23:21;100430.34;;;27.68;45.67
79625;BME280;69101;45.534;10.218;2023-07-09T06:25:47;100442.66;;;27.69;45.99
79625;BME280;69101;45.534;10.218;2023-07-09T06:28:20;100440.00;;;27.69;45.83
79625;BME280;69101;45.534;10.218;2023-07-09T06:30:46;100438.84;;;27.65;45.88
79625;BME280;69101;45.534;10.218;2023-07-09T06:33:13;100446.84;;;27.65;45.72
79625;BME280;69101;45.534;10.218;2023-07-09T06:35:46;100446.38;;;27.68;45.93
79625;BME280;69101;45.534;10.218;2023-07-09T06:38:12;100447.63;;;27.66;45.95
79625;BME280;69101;45.534;10.218;2023-07-09T06:40:37;100448.47;;;27.66;45.94
79625;BME280;69101;45.534;10.218;2023-07-09T06:43:02;100447.88;;;27.64;46.01
79625;BME280;69101;45.534;10.218;2023-07-09T06:45:28;100449.97;;;27.62;45.89
79625;BME280;69101;45.534;10.218;2023-07-09T06:47:54;100449.59;;;27.59;46.10
79625;BME280;69101;45.534;10.218;2023-07-09T06:50:19;100442.66;;;27.58;46.16
79625;BME280;69101;45.534;10.218;2023-07-09T06:52:46;100449.59;;;27.59;46.14
79625;BME280;69101;45.534;10.218;2023-07-09T06:55:11;100449.03;;;27.57;46.18
79625;BME280;69101;45.534;10.218;2023-07-09T06:57:36;100450.06;;;27.56;46.20
79625;BME280;69101;45.534;10.218;2023-07-09T07:00:02;100449.47;;;27.54;46.21
79625;BME280;69101;45.534;10.218;2023-07-09T07:02:28;100451.94;;;27.55;46.25
79625;BME280;69101;45.534;10.218;2023-07-09T07:04:53;100457.28;;;27.55;46.32
79625;BME280;69101;45.534;10.218;2023-07-09T07:07:19;100459.34;;;27.53;46.29
79625;BME280;69101;45.534;10.218;2023-07-09T07:09:45;100452.97;;;27.54;46.41
79625;BME280;69101;45.534;10.218;2023-07-09T07:12:10;100449.34;;;27.49;46.19
79625;BME280;69101;45.534;10.218;2023-07-09T07:14:36;100451.31;;;27.53;46.49
79625;BME280;69101;45.534;10.218;2023-07-09T07:17:02;100455.06;;;27.52;46.51
79625;BME280;69101;45.534;10.218;2023-07-09T07:19:27;100440.88;;;27.52;46.45
79625;BME280;69101;45.534;10.218;2023-07-09T07:21:53;100450.53;;;27.53;46.52
79625;BME280;69101;45.534;10.218;2023-07-09T07:24:18;100447.88;;;27.53;46.30
79625;BME280;69101;45.534;10.218;2023-07-09T07:26:44;100436.34;;;27.52;46.42
79625;BME280;69101;45.534;10.218;2023-07-09T07:29:09;100439.03;;;27.52;46.57
79625;BME280;69101;45.534;10.218;2023-07-09T07:31:34;100442.53;;;27.53;46.39
79625;BME280;69101;45.534;10.218;2023-07-09T07:34:00;100436.34;;;27.52;46.59
79625;BME280;69101;45.534;10.218;2023-07-09T07:36:25;100439.03;;;27.52;46.58
79625;BME280;69101;45.534;10.218;2023-07-09T07:38:51;100437.19;;;27.53;46.42
79625;BME280;69101;45.534;10.218;2023-07-09T07:41:16;100444.38;;;27.52;46.61
79625;BME280;69101;45.534;10.218;2023-07-09T07:43:41;100440.63;;;27.53;46.54
79625;BME280;69101;45.534;10.218;2023-07-09T07:46:07;100437.19;;;27.53;46.49
79625;BME280;69101;45.534;10.218;2023-07-09T07:48:33;100433.69;;;27.52;46.49
79625;BME280;69101;45.534;10.218;2023-07-09T07:50:59;100421.34;;;27.51;46.53
79625;BME280;69101;45.534;10.218;2023-07-09T07:53:27;100425.88;;;27.51;46.55
79625;BME280;69101;45.534;10.218;2023-07-09T07:55:55;100422.63;;;27.49;46.57
79625;BME280;69101;45.534;10.218;2023-07-09T07:58:21;100424.03;;;27.51;46.61
79625;BME280;69101;45.534;10.218;2023-07-09T08:00:46;100421.34;;;27.51;46.47
79625;BME280;69101;45.534;10.218;2023-07-09T08:03:12;100420.19;;;27.47;46.57
79625;BME280;69101;45.534;10.218;2023-07-09T08:05:37;100427.50;;;27.52;46.42
79625;BME280;69101;45.534;10.218;2023-07-09T08:08:03;100422.19;;;27.52;46.38
79625;BME280;69101;45.534;10.218;2023-07-09T08:10:29;100428.34;;;27.52;46.42
79625;BME280;69101;45.534;10.218;2023-07-09T08:12:54;100427.28;;;27.53;46.52
79625;BME280;69101;45.534;10.218;2023-07-09T08:15:22;100417.66;;;27.52;46.57
79625;BME280;69101;45.534;10.218;2023-07-09T08:17:48;100419.50;;;27.52;46.43
79625;BME280;69101;45.534;10.218;2023-07-09T08:20:13;100417.66;;;27.52;46.33
79625;BME280;69101;45.534;10.218;2023-07-09T08:22:38;100414.97;;;27.52;46.34
79625;BME280;69101;45.534;10.218;2023-07-09T08:25:04;100413.91;;;27.53;46.39
79625;BME280;69101;45.534;10.218;2023-07-09T08:27:30;100410.47;;;27.53;46.48
79625;BME280;69101;45.534;10.218;2023-07-09T08:29:55;100419.25;;;27.53;46.43
79625;BME280;69101;45.534;10.218;2023-07-09T08:32:20;100412.06;;;27.54;46.41
79625;BME280;69101;45.534;10.218;2023-07-09T08:34:46;100415.56;;;27.54;46.35
79625;BME280;69101;45.534;10.218;2023-07-09T08:37:11;100415.56;;;27.54;46.21
79625;BME280;69101;45.534;10.218;2023-07-09T08:39:36;100418.00;;;27.56;46.31
79625;BME280;69101;45.534;10.218;2023-07-09T08:42:06;100413.59;;;27.61;46.41
79625;BME280;69101;45.534;10.218;2023-07-09T08:50:46;100411.78;;;27.85;45.84
79625;BME280;69101;45.534;10.218;2023-07-09T08:53:18;100422.59;;;27.90;46.01
79625;BME280;69101;45.534;10.218;2023-07-09T08:55:45;100408.06;;;27.86;45.90
79625;BME280;69101;45.534;10.218;2023-07-09T08:58:25;100406.31;;;27.91;45.80
79625;BME280;69101;45.534;10.218;2023-07-09T09:05:55;100414.00;;;27.88;46.01
79625;BME280;69101;45.534;10.218;2023-07-09T09:08:41;100417.00;;;27.91;45.98
79625;BME280;69101;45.534;10.218;2023-07-09T09:11:34;100418.66;;;27.92;45.80
79625;BME280;69101;45.534;10.218;2023-07-09T09:14:07;100417.81;;;27.92;46.14
79625;BME280;69101;45.534;10.218;2023-07-09T09:16:40;100418.66;;;27.92;46.32
79625;BME280;69101;45.534;10.218;2023-07-09T09:19:20;100407.38;;;27.90;46.21
79625;BME280;69101;45.534;10.218;2023-07-09T09:21:50;100420.63;;;27.85;46.31
79625;BME280;69101;45.534;10.218;2023-07-09T09:24:31;100417.13;;;27.96;46.15
79625;BME280;69101;45.534;10.218;2023-07-09T09:26:58;100420.75;;;27.90;46.26
79625;BME280;69101;45.534;10.218;2023-07-09T09:29:24;100428.53;;;27.92;46.33
79625;BME280;69101;45.534;10.218;2023-07-09T09:31:53;100425.97;;;27.97;46.25
79625;BME280;69101;45.534;10.218;2023-07-09T09:34:23;100420.84;;;27.95;45.13
79625;BME280;69101;45.534;10.218;2023-07-09T09:36:50;100416.53;;;27.94;45.95
79625;BME280;69101;45.534;10.218;2023-07-09T09:39:16;100417.00;;;27.91;46.34
79625;BME280;69101;45.534;10.218;2023-07-09T09:41:44;100418.75;;;27.98;46.12
79625;BME280;69101;45.534;10.218;2023-07-09T09:44:20;100411.19;;;27.94;46.23
79625;BME280;69101;45.534;10.218;2023-07-09T09:46:48;100415.88;;;27.99;46.03
79625;BME280;69101;45.534;10.218;2023-07-09T09:49:14;100411.31;;;28.00;46.05
79625;BME280;69101;45.534;10.218;2023-07-09T09:51:40;100411.78;;;27.96;45.94
79625;BME280;69101;45.534;10.218;2023-07-09T09:54:24;100406.91;;;27.93;45.77
79625;BME280;69101;45.534;10.218;2023-07-09T09:56:52;100411.91;;;27.90;45.94
79625;BME280;69101;45.534;10.218;2023-07-09T09:59:27;100413.41;;;27.98;45.99
79625;BME280;69101;45.534;10.218;2023-07-09T10:02:14;100415.63;;;28.01;45.90
79625;BME280;69101;45.534;10.218;2023-07-09T10:04:40;100418.75;;;27.98;45.92
79625;BME280;69101;45.534;10.218;2023-07-09T10:07:07;100416.25;;;28.03;45.86
79625;BME280;69101;45.534;10.218;2023-07-09T10:09:51;100414.13;;;28.05;45.92
79625;BME280;69101;45.534;10.218;2023-07-09T10:12:48;100419.03;;;28.08;45.79
79625;BME280;69101;45.534;10.218;2023-07-09T10:15:24;100412.06;;;28.07;45.83
79625;BME280;69101;45.534;10.218;2023-07-09T10:20:51;100408.66;;;28.00;46.30
79625;BME280;69101;45.534;10.218;2023-07-09T10:23:34;100411.47;;;28.05;46.38
79625;BME280;69101;45.534;10.218;2023-07-09T10:29:00;100409.84;;;28.04;46.83
79625;BME280;69101;45.534;10.218;2023-07-09T10:39:42;100416.94;;;28.10;46.73
79625;BME280;69101;45.534;10.218;2023-07-09T10:42:27;100415.78;;;28.06;46.98
79625;BME280;69101;45.534;10.218;2023-07-09T10:45:10;100418.47;;;28.06;47.22
79625;BME280;69101;45.534;10.218;2023-07-09T10:47:56;100418.47;;;28.06;47.63
79625;BME280;69101;45.534;10.218;2023-07-09T10:50:33;100412.19;;;28.12;47.59
79625;BME280;69101;45.534;10.218;2023-07-09T10:53:16;100411.94;;;28.13;47.52
79625;BME280;69101;45.534;10.218;2023-07-09T10:55:59;100404.06;;;28.07;47.68
79625;BME280;69101;45.534;10.218;2023-07-09T10:58:39;100410.78;;;28.09;47.89
79625;BME280;69101;45.534;10.218;2023-07-09T11:01:07;100412.19;;;28.12;47.98
79625;BME280;69101;45.534;10.218;2023-07-09T11:06:02;100409.97;;;28.09;48.25
79625;BME280;69101;45.534;10.218;2023-07-09T11:08:35;100411.13;;;28.13;48.08
79625;BME280;69101;45.534;10.218;2023-07-09T11:11:05;100405.19;;;28.11;48.27
79625;BME280;69101;45.534;10.218;2023-07-09T11:13:57;100405.06;;;28.17;48.45
79625;BME280;69101;45.534;10.218;2023-07-09T11:16:32;100403.00;;;28.19;48.53
79625;BME280;69101;45.534;10.218;2023-07-09T11:19:01;100400.78;;;28.16;48.37
79625;BME280;69101;45.534;10.218;2023-07-09T11:21:27;100408.56;;;28.18;48.80
79625;BME280;69101;45.534;10.218;2023-07-09T11:23:56;100400.53;;;28.18;48.56
79625;BME280;69101;45.534;10.218;2023-07-09T11:28:53;100396.56;;;27.97;48.97
79625;BME280;69101;45.534;10.218;2023-07-09T11:31:31;100397.25;;;27.92;49.19
79625;BME280;69101;45.534;10.218;2023-07-09T11:36:33;100387.97;;;27.83;49.29
79625;BME280;69101;45.534;10.218;2023-07-09T11:39:00;100379.56;;;27.80;49.35
79625;BME280;69101;45.534;10.218;2023-07-09T11:41:42;100393.31;;;27.83;49.16
79625;BME280;69101;45.534;10.218;2023-07-09T11:46:43;100388.41;;;27.80;49.45
79625;BME280;69101;45.534;10.218;2023-07-09T11:49:13;100396.19;;;27.82;49.42
79625;BME280;69101;45.534;10.218;2023-07-09T11:51:45;100388.41;;;27.80;49.26
79625;BME280;69101;45.534;10.218;2023-07-09T11:54:12;100381.69;;;27.78;49.27
79625;BME280;69101;45.534;10.218;2023-07-09T11:56:41;100381.69;;;27.78;49.27
79625;BME280;69101;45.534;10.218;2023-07-09T11:59:13;100378.75;;;27.79;49.44
79625;BME280;69101;45.534;10.218;2023-07-09T12:01:44;100374.94;;;27.75;49.37
79625;BME280;69101;45.534;10.218;2023-07-09T12:04:14;100368.75;;;27.75;49.05
79625;BME280;69101;45.534;10.218;2023-07-09T12:06:42;100370.41;;;27.76;49.19
79625;BME280;69101;45.534;10.218;2023-07-09T12:09:16;100372.00;;;27.77;49.09
79625;BME280;69101;45.534;10.218;2023-07-09T12:11:48;100374.47;;;27.78;49.09
79625;BME280;69101;45.534;10.218;2023-07-09T12:14:18;100379.00;;;27.78;49.08
79625;BME280;69101;45.534;10.218;2023-07-09T12:16:46;100369.34;;;27.77;49.22
79625;BME280;69101;45.534;10.218;2023-07-09T12:19:14;100364.25;;;27.75;49.07
79625;BME280;69101;45.534;10.218;2023-07-09T12:21:42;100361.91;;;27.79;49.04
79625;BME280;69101;45.534;10.218;2023-07-09T12:24:26;100364.00;;;27.77;49.36
79625;BME280;69101;45.534;10.218;2023-07-09T12:26:59;100355.16;;;27.76;48.95
79625;BME280;69101;45.534;10.218;2023-07-09T12:29:29;100355.16;;;27.76;49.12
79625;BME280;69101;45.534;10.218;2023-07-09T12:31:59;100343.44;;;27.77;48.90
79625;BME280;69101;45.534;10.218;2023-07-09T12:34:30;100341.56;;;27.78;48.92
79625;BME280;69101;45.534;10.218;2023-07-09T12:36:56;100336.94;;;27.73;48.87
79625;BME280;69101;45.534;10.218;2023-07-09T12:39:26;100347.97;;;27.77;48.92
79625;BME280;69101;45.534;10.218;2023-07-09T12:41:55;100354.69;;;27.79;48.88
79625;BME280;69101;45.534;10.218;2023-07-09T12:44:22;100345.06;;;27.78;48.84
79625;BME280;69101;45.534;10.218;2023-07-09T12:46:50;100344.00;;;27.79;48.76
79625;BME280;69101;45.534;10.218;2023-07-09T12:49:30;100334.13;;;27.80;48.77
79625;BME280;69101;45.534;10.218;2023-07-09T12:52:01;100344.25;;;27.78;48.96
79625;BME280;69101;45.534;10.218;2023-07-09T12:54:30;100336.69;;;27.75;48.75
79625;BME280;69101;45.534;10.218;2023-07-09T12:56:58;100339.72;;;27.78;48.77
79625;BME280;69101;45.534;10.218;2023-07-09T12:59:26;100341.34;;;27.79;48.56
79625;BME280;69101;45.534;10.218;2023-07-09T13:02:15;100333.56;;;27.78;48.65
79625;BME280;69101;45.534;10.218;2023-07-09T13:04:41;100323.91;;;27.77;48.47
79625;BME280;69101;45.534;10.218;2023-07-09T13:09:51;100315.06;;;27.76;48.45
79625;BME280;69101;45.534;10.218;2023-07-09T13:12:18;100316.47;;;27.79;48.63
79625;BME280;69101;45.534;10.218;2023-07-09T13:14:52;100308.22;;;27.80;48.60
79625;BME280;69101;45.534;10.218;2023-07-09T13:17:18;100312.19;;;27.78;48.86
79625;BME280;69101;45.534;10.218;2023-07-09T13:19:44;100308.44;;;27.79;48.56
79625;BME280;69101;45.534;10.218;2023-07-09T13:22:14;100305.75;;;27.79;48.43
79625;BME280;69101;45.534;10.218;2023-07-09T13:24:40;100314.03;;;27.77;48.35
79625;BME280;69101;45.534;10.218;2023-07-09T13:27:11;100316.47;;;27.79;48.54
79625;BME280;69101;45.534;10.218;2023-07-09T13:29:36;100307.41;;;27.80;48.51